sensor_id;sensor_type;location;lat;lon;timestamp;pressure;altitude;pressure_sealevel;temperature;humidity
46718;BME280;32448;44.960;-0.698;2023-04-24T00:00:10;101260.94;;;12.67;100.00
46718;BME280;32448;44.960;-0.698;2023-04-24T00:02:41;101266.91;;;12.60;100.00
46718;BME280;32448;44.960;-0.698;2023-04-24T00:05:14;101260.69;;;12.53;100.00
46718;BME280;32448;44.960;-0.698;2023-04-24T00:07:43;101260.63;;;12.47;100.00
46718;BME280;32448;44.960;-0.698;2023-04-24T00:10:11;101265.66;;;12.38;100.00
46718;BME280;32448;44.960;-0.698;2023-04-24T00:12:39;101263.06;;;12.38;100.00
46718;BME280;32448;44.960;-0.698;2023-04-24T00:15:07;101265.69;;;12.36;100.00
46718;BME280;32448;44.960;-0.698;2023-04-24T00:17:35;101262.16;;;12.36;100.00
46718;BME280;32448;44.960;-0.698;2023-04-24T00:20:03;101260.41;;;12.35;100.00
46718;BME280;32448;44.960;-0.698;2023-04-24T00:22:32;101263.78;;;12.29;100.00
46718;BME280;32448;44.960;-0.698;2023-04-24T00:24:59;101264.59;;;12.25;100.00
46718;BME280;32448;44.960;-0.698;2023-04-24T00:27:27;101270.66;;;12.23;100.00
46718;BME280;32448;44.960;-0.698;2023-04-24T00:29:55;101266.28;;;12.22;100.00
46718;BME280;32448;44.960;-0.698;2023-04-24T00:32:22;101263.63;;;12.20;100.00
46718;BME280;32448;44.960;-0.698;2023-04-24T00:34:50;101267.09;;;12.19;100.00
46718;BME280;32448;44.960;-0.698;2023-04-24T00:37:18;101277.50;;;12.15;100.00
46718;BME280;32448;44.960;-0.698;2023-04-24T00:39:46;101273.06;;;12.11;100.00
46718;BME280;32448;44.960;-0.698;2023-04-24T00:42:13;101274.66;;;12.04;100.00
46718;BME280;32448;44.960;-0.698;2023-04-24T00:44:42;101285.03;;;11.98;100.00
46718;BME280;32448;44.960;-0.698;2023-04-24T00:47:10;101282.31;;;11.93;100.00
46718;BME280;32448;44.960;-0.698;2023-04-24T00:49:39;101285.75;;;11.89;100.00
46718;BME280;32448;44.960;-0.698;2023-04-24T00:52:07;101292.72;;;11.89;100.00
46718;BME280;32448;44.960;-0.698;2023-04-24T00:54:36;101290.91;;;11.86;100.00
46718;BME280;32448;44.960;-0.698;2023-04-24T00:57:03;101285.63;;;11.85;100.00
46718;BME280;32448;44.960;-0.698;2023-04-24T00:59:32;101283.84;;;11.81;100.00
46718;BME280;32448;44.960;-0.698;2023-04-24T01:01:59;101280.31;;;11.80;100.00
46718;BME280;32448;44.960;-0.698;2023-04-24T01:04:27;101281.09;;;11.76;100.00
46718;BME280;32448;44.960;-0.698;2023-04-24T01:06:56;101281.09;;;11.76;100.00
46718;BME280;32448;44.960;-0.698;2023-04-24T01:09:24;101278.28;;;11.67;100.00
46718;BME280;32448;44.960;-0.698;2023-04-24T01:11:52;101280.63;;;11.55;100.00
46718;BME280;32448;44.960;-0.698;2023-04-24T01:14:20;101278.78;;;11.51;100.00
46718;BME280;32448;44.960;-0.698;2023-04-24T01:16:48;101283.09;;;11.47;100.00
46718;BME280;32448;44.960;-0.698;2023-04-24T01:19:16;101277.63;;;11.38;100.00
46718;BME280;32448;44.960;-0.698;2023-04-24T01:21:45;101285.44;;;11.35;100.00
46718;BME280;32448;44.960;-0.698;2023-04-24T01:24:17;101287.94;;;11.30;100.00
46718;BME280;32448;44.960;-0.698;2023-04-24T01:26:46;101288.63;;;11.22;100.00
46718;BME280;32448;44.960;-0.698;2023-04-24T01:29:14;101294.56;;;11.13;100.00
46718;BME280;32448;44.960;-0.698;2023-04-24T01:31:42;101298.88;;;11.11;100.00
46718;BME280;32448;44.960;-0.698;2023-04-24T01:34:10;101304.81;;;11.06;100.00
46718;BME280;32448;44.960;-0.698;2023-04-24T01:36:38;101294.41;;;11.07;100.00
46718;BME280;32448;44.960;-0.698;2023-04-24T01:39:07;101293.31;;;10.98;100.00
46718;BME280;32448;44.960;-0.698;2023-04-24T01:41:34;101294.78;;;10.86;100.00
46718;BME280;32448;44.960;-0.698;2023-04-24T01:44:03;101288.63;;;10.84;100.00
46718;BME280;32448;44.960;-0.698;2023-04-24T01:46:30;101292.84;;;10.78;100.00
46718;BME280;32448;44.960;-0.698;2023-04-24T01:48:59;101294.41;;;10.71;100.00
46718;BME280;32448;44.960;-0.698;2023-04-24T01:51:28;101298.50;;;10.62;100.00
46718;BME280;32448;44.960;-0.698;2023-04-24T01:53:56;101302.75;;;10.56;100.00
46718;BME280;32448;44.960;-0.698;2023-04-24T01:56:24;101298.28;;;10.52;100.00
46718;BME280;32448;44.960;-0.698;2023-04-24T01:58:52;101298.97;;;10.45;100.00
46718;BME280;32448;44.960;-0.698;2023-04-24T02:01:25;101299.78;;;10.43;100.00
46718;BME280;32448;44.960;-0.698;2023-04-24T02:03:53;101303.19;;;10.40;100.00
46718;BME280;32448;44.960;-0.698;2023-04-24T02:06:21;101296.97;;;10.35;100.00
46718;BME280;32448;44.960;-0.698;2023-04-24T02:08:49;101293.34;;;10.30;100.00
46718;BME280;32448;44.960;-0.698;2023-04-24T02:11:17;101296.66;;;10.23;100.00
46718;BME280;32448;44.960;-0.698;2023-04-24T02:13:46;101308.59;;;10.16;100.00
46718;BME280;32448;44.960;-0.698;2023-04-24T02:16:14;101312.88;;;10.13;100.00
46718;BME280;32448;44.960;-0.698;2023-04-24T02:18:42;101316.03;;;10.01;100.00
46718;BME280;32448;44.960;-0.698;2023-04-24T02:21:10;101319.34;;;9.96;100.00
46718;BME280;32448;44.960;-0.698;2023-04-24T02:23:38;101315.69;;;9.89;100.00
46718;BME280;32448;44.960;-0.698;2023-04-24T02:26:05;101311.22;;;9.85;100.00
46718;BME280;32448;44.960;-0.698;2023-04-24T02:28:33;101321.44;;;9.77;100.00
46718;BME280;32448;44.960;-0.698;2023-04-24T02:31:01;101308.25;;;9.71;100.00
46718;BME280;32448;44.960;-0.698;2023-04-24T02:33:28;101319.53;;;9.70;100.00
46718;BME280;32448;44.960;-0.698;2023-04-24T02:35:56;101318.50;;;9.65;100.00
46718;BME280;32448;44.960;-0.698;2023-04-24T02:38:25;101321.00;;;9.62;100.00
46718;BME280;32448;44.960;-0.698;2023-04-24T02:40:53;101316.59;;;9.60;100.00
46718;BME280;32448;44.960;-0.698;2023-04-24T02:43:21;101315.63;;;9.56;100.00
46718;BME280;32448;44.960;-0.698;2023-04-24T02:45:50;101319.22;;;9.60;100.00
46718;BME280;32448;44.960;-0.698;2023-04-24T02:48:18;101320.72;;;9.53;100.00
46718;BME280;32448;44.960;-0.698;2023-04-24T02:50:48;101313.78;;;9.54;100.00
46718;BME280;32448;44.960;-0.698;2023-04-24T02:53:15;101310.25;;;9.52;100.00
46718;BME280;32448;44.960;-0.698;2023-04-24T02:55:44;101313.63;;;9.47;100.00
46718;BME280;32448;44.960;-0.698;2023-04-24T02:58:16;101319.72;;;9.48;100.00
46718;BME280;32448;44.960;-0.698;2023-04-24T03:00:47;101319.72;;;9.48;100.00
46718;BME280;32448;44.960;-0.698;2023-04-24T03:03:15;101326.66;;;9.47;100.00
46718;BME280;32448;44.960;-0.698;2023-04-24T03:05:43;101327.63;;;9.51;100.00
46718;BME280;32448;44.960;-0.698;2023-04-24T03:08:11;101325.22;;;9.57;100.00
46718;BME280;32448;44.960;-0.698;2023-04-24T03:10:41;101329.59;;;9.58;100.00
46718;BME280;32448;44.960;-0.698;2023-04-24T03:13:11;101322.66;;;9.59;100.00
46718;BME280;32448;44.960;-0.698;2023-04-24T03:15:38;101328.81;;;9.61;100.00
46718;BME280;32448;44.960;-0.698;2023-04-24T03:18:06;101333.22;;;9.63;100.00
46718;BME280;32448;44.960;-0.698;2023-04-24T03:20:34;101333.97;;;9.59;100.00
46718;BME280;32448;44.960;-0.698;2023-04-24T03:23:04;101319.94;;;9.56;100.00
46718;BME280;32448;44.960;-0.698;2023-04-24T03:25:32;101327.06;;;9.61;100.00
46718;BME280;32448;44.960;-0.698;2023-04-24T03:27:59;101329.66;;;9.61;100.00
46718;BME280;32448;44.960;-0.698;2023-04-24T03:30:37;101329.88;;;9.67;100.00
46718;BME280;32448;44.960;-0.698;2023-04-24T03:33:06;101327.16;;;9.64;100.00
46718;BME280;32448;44.960;-0.698;2023-04-24T03:35:37;101339.38;;;9.65;100.00
46718;BME280;32448;44.960;-0.698;2023-04-24T03:38:08;101335.03;;;9.66;100.00
46718;BME280;32448;44.960;-0.698;2023-04-24T03:41:07;101340.41;;;9.70;100.00
46718;BME280;32448;44.960;-0.698;2023-04-24T03:43:47;101334.41;;;9.74;100.00
46718;BME280;32448;44.960;-0.698;2023-04-24T03:46:14;101339.69;;;9.76;100.00
46718;BME280;32448;44.960;-0.698;2023-04-24T03:48:51;101336.19;;;9.75;100.00
46718;BME280;32448;44.960;-0.698;2023-04-24T03:51:21;101332.63;;;9.73;100.00
46718;BME280;32448;44.960;-0.698;2023-04-24T03:53:52;101333.47;;;9.71;100.00
46718;BME280;32448;44.960;-0.698;2023-04-24T03:56:21;101335.75;;;9.60;100.00
46718;BME280;32448;44.960;-0.698;2023-04-24T03:58:48;101327.94;;;9.60;100.00
46718;BME280;32448;44.960;-0.698;2023-04-24T04:01:16;101337.44;;;9.58;100.00
46718;BME280;32448;44.960;-0.698;2023-04-24T04:03:51;101332.94;;;9.54;100.00
46718;BME280;32448;44.960;-0.698;2023-04-24T04:06:22;101334.53;;;9.49;100.00
46718;BME280;32448;44.960;-0.698;2023-04-24T04:08:51;101334.53;;;9.49;100.00
46718;BME280;32448;44.960;-0.698;2023-04-24T04:11:18;101333.69;;;9.50;100.00
46718;BME280;32448;44.960;-0.698;2023-04-24T04:13:49;101346.72;;;9.48;100.00
46718;BME280;32448;44.960;-0.698;2023-04-24T04:16:19;101350.19;;;9.49;100.00
46718;BME280;32448;44.960;-0.698;2023-04-24T04:18:50;101357.97;;;9.47;100.00
46718;BME280;32448;44.960;-0.698;2023-04-24T04:21:17;101346.66;;;9.47;100.00
46718;BME280;32448;44.960;-0.698;2023-04-24T04:23:44;101347.63;;;9.50;100.00
46718;BME280;32448;44.960;-0.698;2023-04-24T04:26:16;101352.81;;;9.49;100.00
46718;BME280;32448;44.960;-0.698;2023-04-24T04:29:12;101349.25;;;9.47;100.00
46718;BME280;32448;44.960;-0.698;2023-04-24T04:31:42;101357.09;;;9.47;100.00
46718;BME280;32448;44.960;-0.698;2023-04-24T04:34:11;101360.47;;;9.44;100.00
46718;BME280;32448;44.960;-0.698;2023-04-24T04:36:40;101362.16;;;9.42;100.00
46718;BME280;32448;44.960;-0.698;2023-04-24T04:39:24;101359.38;;;9.36;100.00
46718;BME280;32448;44.960;-0.698;2023-04-24T04:42:04;101373.09;;;9.31;100.00
46718;BME280;32448;44.960;-0.698;2023-04-24T04:44:37;101385.97;;;9.25;100.00
46718;BME280;32448;44.960;-0.698;2023-04-24T04:47:08;101373.81;;;9.25;100.00
46718;BME280;32448;44.960;-0.698;2023-04-24T04:49:49;101378.91;;;9.22;100.00
46718;BME280;32448;44.960;-0.698;2023-04-24T04:52:36;101387.31;;;9.13;100.00
46718;BME280;32448;44.960;-0.698;2023-04-24T04:55:21;101389.81;;;9.10;100.00
46718;BME280;32448;44.960;-0.698;2023-04-24T04:58:15;101397.59;;;9.09;100.00
46718;BME280;32448;44.960;-0.698;2023-04-24T05:00:45;101399.25;;;9.05;100.00
46718;BME280;32448;44.960;-0.698;2023-04-24T05:03:39;101401.88;;;9.07;100.00
46718;BME280;32448;44.960;-0.698;2023-04-24T05:06:11;101408.66;;;9.02;100.00
46718;BME280;32448;44.960;-0.698;2023-04-24T05:08:38;101416.56;;;9.03;100.00
46718;BME280;32448;44.960;-0.698;2023-04-24T05:11:35;101420.94;;;9.04;100.00
46718;BME280;32448;44.960;-0.698;2023-04-24T05:14:02;101421.66;;;9.00;100.00
46718;BME280;32448;44.960;-0.698;2023-04-24T05:16:42;101424.97;;;8.96;100.00
46718;BME280;32448;44.960;-0.698;2023-04-24T05:19:19;101431.09;;;8.97;100.00
46718;BME280;32448;44.960;-0.698;2023-04-24T05:21:46;101438.03;;;8.96;100.00
46718;BME280;32448;44.960;-0.698;2023-04-24T05:24:13;101441.25;;;8.89;100.00
46718;BME280;32448;44.960;-0.698;2023-04-24T05:26:59;101443.03;;;8.90;100.00
46718;BME280;32448;44.960;-0.698;2023-04-24T05:29:34;101453.41;;;8.89;100.00
46718;BME280;32448;44.960;-0.698;2023-04-24T05:32:02;101451.63;;;8.88;100.00
46718;BME280;32448;44.960;-0.698;2023-04-24T05:34:30;101460.28;;;8.87;100.00
46718;BME280;32448;44.960;-0.698;2023-04-24T05:36:57;101453.41;;;8.89;100.00
46718;BME280;32448;44.960;-0.698;2023-04-24T05:39:25;101455.13;;;8.88;100.00
46718;BME280;32448;44.960;-0.698;2023-04-24T05:41:53;101466.50;;;8.90;100.00
46718;BME280;32448;44.960;-0.698;2023-04-24T05:44:20;101467.53;;;8.95;100.00
46718;BME280;32448;44.960;-0.698;2023-04-24T05:46:48;101474.69;;;9.01;100.00
46718;BME280;32448;44.960;-0.698;2023-04-24T05:49:16;101471.19;;;9.00;100.00
46718;BME280;32448;44.960;-0.698;2023-04-24T05:51:45;101478.31;;;9.06;100.00
46718;BME280;32448;44.960;-0.698;2023-04-24T05:54:12;101479.38;;;9.11;100.00
46718;BME280;32448;44.960;-0.698;2023-04-24T05:56:39;101484.00;;;9.20;100.00
46718;BME280;32448;44.960;-0.698;2023-04-24T05:59:11;101481.47;;;9.21;100.00
46718;BME280;32448;44.960;-0.698;2023-04-24T06:01:39;101488.56;;;9.25;100.00
46718;BME280;32448;44.960;-0.698;2023-04-24T06:04:12;101485.44;;;9.35;100.00
46718;BME280;32448;44.960;-0.698;2023-04-24T06:06:43;101495.16;;;9.41;100.00
46718;BME280;32448;44.960;-0.698;2023-04-24T06:09:09;101498.81;;;9.46;100.00
46718;BME280;32448;44.960;-0.698;2023-04-24T06:11:37;101491.09;;;9.49;100.00
46718;BME280;32448;44.960;-0.698;2023-04-24T06:14:05;101494.91;;;9.59;100.00
46718;BME280;32448;44.960;-0.698;2023-04-24T06:16:36;101495.19;;;9.68;100.00
46718;BME280;32448;44.960;-0.698;2023-04-24T06:19:35;101496.38;;;9.77;100.00
46718;BME280;32448;44.960;-0.698;2023-04-24T06:22:04;101499.38;;;9.90;100.00
46718;BME280;32448;44.960;-0.698;2023-04-24T06:24:31;101494.31;;;9.96;100.00
46718;BME280;32448;44.960;-0.698;2023-04-24T06:26:59;101492.84;;;10.04;100.00
46718;BME280;32448;44.960;-0.698;2023-04-24T06:29:27;101490.50;;;10.13;100.00
46718;BME280;32448;44.960;-0.698;2023-04-24T06:31:55;101487.13;;;10.17;100.00
46718;BME280;32448;44.960;-0.698;2023-04-24T06:34:22;101486.59;;;10.26;100.00
46718;BME280;32448;44.960;-0.698;2023-04-24T06:36:50;101487.72;;;10.35;100.00
46718;BME280;32448;44.960;-0.698;2023-04-24T06:39:17;101484.53;;;10.45;100.00
46718;BME280;32448;44.960;-0.698;2023-04-24T06:41:45;101486.47;;;10.52;100.00
46718;BME280;32448;44.960;-0.698;2023-04-24T06:44:18;101489.34;;;10.62;100.00
46718;BME280;32448;44.960;-0.698;2023-04-24T06:46:46;101492.25;;;10.72;100.00
46718;BME280;32448;44.960;-0.698;2023-04-24T06:49:13;101482.88;;;10.79;100.00
46718;BME280;32448;44.960;-0.698;2023-04-24T06:51:46;101487.38;;;10.84;100.00
46718;BME280;32448;44.960;-0.698;2023-04-24T06:54:14;101484.97;;;10.92;100.00
46718;BME280;32448;44.960;-0.698;2023-04-24T06:56:49;101483.41;;;10.99;100.00
46718;BME280;32448;44.960;-0.698;2023-04-24T06:59:22;101490.56;;;11.06;100.00
46718;BME280;32448;44.960;-0.698;2023-04-24T07:02:13;101486.34;;;11.11;100.00
46718;BME280;32448;44.960;-0.698;2023-04-24T07:04:41;101484.81;;;11.19;100.00
46718;BME280;32448;44.960;-0.698;2023-04-24T07:07:08;101482.34;;;11.25;100.00
46718;BME280;32448;44.960;-0.698;2023-04-24T07:09:39;101482.59;;;11.34;100.00
46718;BME280;32448;44.960;-0.698;2023-04-24T07:12:09;101473.97;;;11.40;100.00
46718;BME280;32448;44.960;-0.698;2023-04-24T07:14:40;101475.97;;;11.48;100.00
46718;BME280;32448;44.960;-0.698;2023-04-24T07:17:07;101475.22;;;11.54;100.00
46718;BME280;32448;44.960;-0.698;2023-04-24T07:19:35;101479.88;;;11.65;100.00
46718;BME280;32448;44.960;-0.698;2023-04-24T07:22:02;101479.97;;;11.70;100.00
46718;BME280;32448;44.960;-0.698;2023-04-24T07:24:30;101479.31;;;11.77;100.00
46718;BME280;32448;44.960;-0.698;2023-04-24T07:27:03;101478.63;;;11.86;100.00
46718;BME280;32448;44.960;-0.698;2023-04-24T07:29:31;101464.84;;;11.93;100.00
46718;BME280;32448;44.960;-0.698;2023-04-24T07:32:06;101468.53;;;12.02;100.00
46718;BME280;32448;44.960;-0.698;2023-04-24T07:34:34;101477.41;;;12.09;100.00
46718;BME280;32448;44.960;-0.698;2023-04-24T07:37:03;101463.50;;;12.12;100.00
46718;BME280;32448;44.960;-0.698;2023-04-24T07:39:30;101467.97;;;12.17;100.00
46718;BME280;32448;44.960;-0.698;2023-04-24T07:41:57;101469.97;;;12.29;100.00
46718;BME280;32448;44.960;-0.698;2023-04-24T07:44:26;101467.53;;;12.36;100.00
46718;BME280;32448;44.960;-0.698;2023-04-24T07:46:53;101474.75;;;12.50;100.00
46718;BME280;32448;44.960;-0.698;2023-04-24T07:49:20;101465.41;;;12.62;100.00
46718;BME280;32448;44.960;-0.698;2023-04-24T07:51:48;101463.00;;;12.73;100.00
46718;BME280;32448;44.960;-0.698;2023-04-24T07:54:15;101469.44;;;12.89;100.00
46718;BME280;32448;44.960;-0.698;2023-04-24T07:56:44;101467.06;;;13.02;100.00
46718;BME280;32448;44.960;-0.698;2023-04-24T07:59:12;101463.84;;;13.17;100.00
46718;BME280;32448;44.960;-0.698;2023-04-24T08:01:39;101461.34;;;13.23;100.00
46718;BME280;32448;44.960;-0.698;2023-04-24T08:04:09;101466.81;;;13.38;100.00
46718;BME280;32448;44.960;-0.698;2023-04-24T08:06:36;101472.44;;;13.61;100.00
46718;BME280;32448;44.960;-0.698;2023-04-24T08:09:03;101458.66;;;13.74;100.00
46718;BME280;32448;44.960;-0.698;2023-04-24T08:11:30;101455.28;;;13.84;100.00
46718;BME280;32448;44.960;-0.698;2023-04-24T08:13:58;101454.63;;;13.98;100.00
46718;BME280;32448;44.960;-0.698;2023-04-24T08:16:25;101455.66;;;14.09;100.00
46718;BME280;32448;44.960;-0.698;2023-04-24T08:18:52;101452.19;;;14.14;100.00
46718;BME280;32448;44.960;-0.698;2023-04-24T08:21:20;101455.84;;;14.26;100.00
46718;BME280;32448;44.960;-0.698;2023-04-24T08:23:49;101441.97;;;14.36;100.00
46718;BME280;32448;44.960;-0.698;2023-04-24T08:26:16;101436.81;;;14.42;100.00
46718;BME280;32448;44.960;-0.698;2023-04-24T08:28:43;101439.50;;;14.46;100.00
46718;BME280;32448;44.960;-0.698;2023-04-24T08:31:11;101437.88;;;14.59;100.00
46718;BME280;32448;44.960;-0.698;2023-04-24T08:33:38;101442.44;;;14.74;100.00
46718;BME280;32448;44.960;-0.698;2023-04-24T08:36:08;101439.03;;;14.84;100.00
46718;BME280;32448;44.960;-0.698;2023-04-24T08:38:35;101447.00;;;14.90;100.00
46718;BME280;32448;44.960;-0.698;2023-04-24T08:41:02;101450.47;;;14.87;100.00
46718;BME280;32448;44.960;-0.698;2023-04-24T08:43:34;101448.66;;;14.79;100.00
46718;BME280;32448;44.960;-0.698;2023-04-24T08:46:04;101447.72;;;14.75;100.00
46718;BME280;32448;44.960;-0.698;2023-04-24T08:48:37;101442.59;;;14.92;100.00
46718;BME280;32448;44.960;-0.698;2023-04-24T08:51:08;101444.34;;;14.87;100.00
46718;BME280;32448;44.960;-0.698;2023-04-24T08:53:36;101447.00;;;14.93;100.00
46718;BME280;32448;44.960;-0.698;2023-04-24T08:56:04;101452.38;;;15.01;100.00
46718;BME280;32448;44.960;-0.698;2023-04-24T08:58:32;101443.66;;;15.08;100.00
46718;BME280;32448;44.960;-0.698;2023-04-24T09:01:00;101440.19;;;15.13;100.00
46718;BME280;32448;44.960;-0.698;2023-04-24T09:03:27;101437.63;;;15.21;100.00
46718;BME280;32448;44.960;-0.698;2023-04-24T09:05:55;101434.06;;;15.13;100.00
46718;BME280;32448;44.960;-0.698;2023-04-24T09:08:32;101442.91;;;15.21;100.00
46718;BME280;32448;44.960;-0.698;2023-04-24T09:10:59;101440.22;;;15.18;100.00
46718;BME280;32448;44.960;-0.698;2023-04-24T09:13:29;101435.88;;;15.24;100.00
46718;BME280;32448;44.960;-0.698;2023-04-24T09:16:00;101436.88;;;15.39;100.00
46718;BME280;32448;44.960;-0.698;2023-04-24T09:18:30;101437.75;;;15.38;100.00
46718;BME280;32448;44.960;-0.698;2023-04-24T09:21:02;101428.97;;;15.36;100.00
46718;BME280;32448;44.960;-0.698;2023-04-24T09:23:30;101429.84;;;15.38;100.00
46718;BME280;32448;44.960;-0.698;2023-04-24T09:25:59;101435.16;;;15.42;100.00
46718;BME280;32448;44.960;-0.698;2023-04-24T09:28:31;101436.84;;;15.36;100.00
46718;BME280;32448;44.960;-0.698;2023-04-24T09:31:04;101416.59;;;15.25;100.00
46718;BME280;32448;44.960;-0.698;2023-04-24T09:33:32;101433.34;;;15.32;100.00
46718;BME280;32448;44.960;-0.698;2023-04-24T09:35:59;101433.28;;;15.26;100.00
46718;BME280;32448;44.960;-0.698;2023-04-24T09:38:35;101428.03;;;15.27;100.00
46718;BME280;32448;44.960;-0.698;2023-04-24T09:41:06;101434.25;;;15.37;100.00
46718;BME280;32448;44.960;-0.698;2023-04-24T09:43:35;101442.28;;;15.54;100.00
46718;BME280;32448;44.960;-0.698;2023-04-24T09:46:09;101440.69;;;15.73;100.00
46718;BME280;32448;44.960;-0.698;2023-04-24T09:48:37;101431.16;;;15.94;100.00
46718;BME280;32448;44.960;-0.698;2023-04-24T09:51:06;101430.41;;;16.26;100.00
46718;BME280;32448;44.960;-0.698;2023-04-24T09:53:37;101431.44;;;16.55;100.00
46718;BME280;32448;44.960;-0.698;2023-04-24T09:56:10;101432.38;;;16.65;100.00
46718;BME280;32448;44.960;-0.698;2023-04-24T09:58:40;101433.25;;;16.71;100.00
46718;BME280;32448;44.960;-0.698;2023-04-24T10:01:08;101423.59;;;16.86;100.00
46718;BME280;32448;44.960;-0.698;2023-04-24T10:03:47;101425.38;;;16.94;100.00
46718;BME280;32448;44.960;-0.698;2023-04-24T10:06:17;101421.81;;;16.71;100.00
46718;BME280;32448;44.960;-0.698;2023-04-24T10:08:44;101418.28;;;16.66;100.00
46718;BME280;32448;44.960;-0.698;2023-04-24T10:11:13;101424.44;;;16.71;100.00
46718;BME280;32448;44.960;-0.698;2023-04-24T10:13:41;101425.34;;;16.67;100.00
46718;BME280;32448;44.960;-0.698;2023-04-24T10:16:09;101419.06;;;16.44;100.00
46718;BME280;32448;44.960;-0.698;2023-04-24T10:18:36;101430.53;;;16.53;100.00
46718;BME280;32448;44.960;-0.698;2023-04-24T10:21:06;101438.47;;;16.55;100.00
46718;BME280;32448;44.960;-0.698;2023-04-24T10:23:33;101428.75;;;16.48;100.00
46718;BME280;32448;44.960;-0.698;2023-04-24T10:26:02;101432.25;;;16.39;100.00
46718;BME280;32448;44.960;-0.698;2023-04-24T10:28:43;101432.22;;;16.33;100.00
46718;BME280;32448;44.960;-0.698;2023-04-24T10:31:41;101428.69;;;16.35;100.00
46718;BME280;32448;44.960;-0.698;2023-04-24T10:34:27;101434.00;;;16.38;100.00
46718;BME280;32448;44.960;-0.698;2023-04-24T10:36:56;101428.75;;;16.48;100.00
46718;BME280;32448;44.960;-0.698;2023-04-24T10:39:29;101428.88;;;16.75;100.00
46718;BME280;32448;44.960;-0.698;2023-04-24T10:41:58;101423.59;;;16.92;100.00
46718;BME280;32448;44.960;-0.698;2023-04-24T10:44:25;101426.25;;;16.96;100.00
46718;BME280;32448;44.960;-0.698;2023-04-24T10:46:54;101430.63;;;16.82;100.00
46718;BME280;32448;44.960;-0.698;2023-04-24T10:49:28;101430.63;;;16.82;100.00
46718;BME280;32448;44.960;-0.698;2023-04-24T10:52:01;101441.16;;;16.64;100.00
46718;BME280;32448;44.960;-0.698;2023-04-24T10:54:30;101438.47;;;16.61;100.00
46718;BME280;32448;44.960;-0.698;2023-04-24T11:02:45;101441.91;;;16.40;100.00
46718;BME280;32448;44.960;-0.698;2023-04-24T11:05:16;101436.63;;;16.35;100.00
46718;BME280;32448;44.960;-0.698;2023-04-24T11:10:55;101424.34;;;16.41;100.00
46718;BME280;32448;44.960;-0.698;2023-04-24T11:19:10;101422.72;;;16.93;100.00
46718;BME280;32448;44.960;-0.698;2023-04-24T11:22:02;101423.63;;;17.05;100.00
46718;BME280;32448;44.960;-0.698;2023-04-24T11:27:20;101412.19;;;17.09;100.00
46718;BME280;32448;44.960;-0.698;2023-04-24T11:32:28;101418.34;;;17.13;100.00
46718;BME280;32448;44.960;-0.698;2023-04-24T11:35:06;101419.25;;;17.32;100.00
46718;BME280;32448;44.960;-0.698;2023-04-24T11:37:35;101408.63;;;17.45;100.00
46718;BME280;32448;44.960;-0.698;2023-04-24T11:40:04;101411.28;;;17.39;100.00
46718;BME280;32448;44.960;-0.698;2023-04-24T11:42:45;101413.03;;;17.34;100.00
46718;BME280;32448;44.960;-0.698;2023-04-24T11:45:16;101420.09;;;17.35;100.00
46718;BME280;32448;44.960;-0.698;2023-04-24T11:47:44;101421.00;;;17.40;100.00
46718;BME280;32448;44.960;-0.698;2023-04-24T11:50:13;101418.34;;;17.37;100.00
46718;BME280;32448;44.960;-0.698;2023-04-24T11:52:40;101415.72;;;17.31;100.00
46718;BME280;32448;44.960;-0.698;2023-04-24T11:57:45;101403.34;;;17.47;100.00
46718;BME280;32448;44.960;-0.698;2023-04-24T12:00:17;101391.03;;;17.55;100.00
46718;BME280;32448;44.960;-0.698;2023-04-24T12:02:45;101377.78;;;17.70;100.00
46718;BME280;32448;44.960;-0.698;2023-04-24T12:05:23;101376.88;;;17.88;100.00
46718;BME280;32448;44.960;-0.698;2023-04-24T12:07:52;101382.91;;;18.16;100.00
46718;BME280;32448;44.960;-0.698;2023-04-24T12:10:22;101386.56;;;17.83;100.00
46718;BME280;32448;44.960;-0.698;2023-04-24T12:12:50;101384.75;;;18.02;100.00
46718;BME280;32448;44.960;-0.698;2023-04-24T12:15:18;101379.44;;;18.03;100.00
46718;BME280;32448;44.960;-0.698;2023-04-24T12:17:52;101377.69;;;18.08;100.00
46718;BME280;32448;44.960;-0.698;2023-04-24T12:20:26;101389.09;;;18.12;100.00
46718;BME280;32448;44.960;-0.698;2023-04-24T12:22:56;101393.47;;;18.24;100.00
46718;BME280;32448;44.960;-0.698;2023-04-24T12:25:25;101386.44;;;18.15;100.00
46718;BME280;32448;44.960;-0.698;2023-04-24T12:27:53;101381.09;;;18.26;100.00
46718;BME280;32448;44.960;-0.698;2023-04-24T12:30:26;101368.81;;;18.18;100.00
46718;BME280;32448;44.960;-0.698;2023-04-24T12:32:58;101366.09;;;18.32;100.00
46718;BME280;32448;44.960;-0.698;2023-04-24T12:35:27;101362.50;;;18.44;100.00
46718;BME280;32448;44.960;-0.698;2023-04-24T12:37:54;101362.56;;;18.30;100.00
46718;BME280;32448;44.960;-0.698;2023-04-24T12:40:21;101359.06;;;18.30;100.00
46718;BME280;32448;44.960;-0.698;2023-04-24T12:42:49;101356.41;;;18.27;100.00
46718;BME280;32448;44.960;-0.698;2023-04-24T12:45:17;101360.75;;;18.35;100.00
46718;BME280;32448;44.960;-0.698;2023-04-24T12:47:45;101340.47;;;18.40;100.00
46718;BME280;32448;44.960;-0.698;2023-04-24T12:50:13;101344.81;;;18.50;100.00
46718;BME280;32448;44.960;-0.698;2023-04-24T12:52:40;101340.41;;;18.49;100.00
46718;BME280;32448;44.960;-0.698;2023-04-24T12:55:08;101335.94;;;18.62;100.00
46718;BME280;32448;44.960;-0.698;2023-04-24T12:57:37;101340.34;;;18.63;100.00
46718;BME280;32448;44.960;-0.698;2023-04-24T13:00:05;101344.72;;;18.67;100.00
46718;BME280;32448;44.960;-0.698;2023-04-24T13:02:32;101338.59;;;18.61;100.00
46718;BME280;32448;44.960;-0.698;2023-04-24T13:05:01;101344.78;;;18.60;100.00
46718;BME280;32448;44.960;-0.698;2023-04-24T13:07:28;101349.19;;;18.61;100.00
46718;BME280;32448;44.960;-0.698;2023-04-24T13:09:58;101335.03;;;18.57;100.00